sensor_id;sensor_type;location;lat;lon;timestamp;P1;durP1;ratioP1;P2;durP2;ratioP2
72109;SDS011;59983;52.010;5.420;2024-01-07T00:00:34;3.90;;;3.60;;
72109;SDS011;59983;52.010;5.420;2024-01-07T00:03:01;3.58;;;3.38;;
72109;SDS011;59983;52.010;5.420;2024-01-07T00:05:28;3.47;;;3.27;;
72109;SDS011;59983;52.010;5.420;2024-01-07T00:07:58;3.95;;;3.63;;
72109;SDS011;59983;52.010;5.420;2024-01-07T00:10:25;3.80;;;3.50;;
72109;SDS011;59983;52.010;5.420;2024-01-07T00:12:51;4.10;;;3.80;;
72109;SDS011;59983;52.010;5.420;2024-01-07T00:15:18;3.60;;;3.40;;
72109;SDS011;59983;52.010;5.420;2024-01-07T00:17:45;3.93;;;3.63;;
72109;SDS011;59983;52.010;5.420;2024-01-07T00:20:11;3.72;;;3.53;;
72109;SDS011;59983;52.010;5.420;2024-01-07T00:22:38;3.70;;;3.50;;
72109;SDS011;59983;52.010;5.420;2024-01-07T00:25:04;3.58;;;3.38;;
72109;SDS011;59983;52.010;5.420;2024-01-07T00:27:31;3.42;;;3.13;;
72109;SDS011;59983;52.010;5.420;2024-01-07T00:29:58;3.90;;;3.70;;
72109;SDS011;59983;52.010;5.420;2024-01-07T00:32:24;3.50;;;3.30;;
72109;SDS011;59983;52.010;5.420;2024-01-07T00:34:52;3.58;;;3.38;;
72109;SDS011;59983;52.010;5.420;2024-01-07T00:37:21;3.40;;;3.20;;
72109;SDS011;59983;52.010;5.420;2024-01-07T00:39:48;4.00;;;3.75;;
72109;SDS011;59983;52.010;5.420;2024-01-07T00:42:14;3.83;;;3.63;;
72109;SDS011;59983;52.010;5.420;2024-01-07T00:44:41;4.53;;;4.32;;
72109;SDS011;59983;52.010;5.420;2024-01-07T00:47:07;4.05;;;3.75;;
72109;SDS011;59983;52.010;5.420;2024-01-07T00:49:34;3.50;;;3.28;;
72109;SDS011;59983;52.010;5.420;2024-01-07T00:52:01;4.25;;;3.97;;
72109;SDS011;59983;52.010;5.420;2024-01-07T00:54:27;4.03;;;3.80;;
72109;SDS011;59983;52.010;5.420;2024-01-07T00:56:54;4.05;;;3.75;;
72109;SDS011;59983;52.010;5.420;2024-01-07T00:59:20;4.20;;;4.00;;
72109;SDS011;59983;52.010;5.420;2024-01-07T01:01:47;4.20;;;4.00;;
72109;SDS011;59983;52.010;5.420;2024-01-07T01:04:14;3.90;;;3.60;;
72109;SDS011;59983;52.010;5.420;2024-01-07T01:06:40;3.80;;;3.60;;
72109;SDS011;59983;52.010;5.420;2024-01-07T01:09:07;4.22;;;3.92;;
72109;SDS011;59983;52.010;5.420;2024-01-07T01:11:34;4.00;;;3.63;;
72109;SDS011;59983;52.010;5.420;2024-01-07T01:14:00;4.00;;;3.80;;
72109;SDS011;59983;52.010;5.420;2024-01-07T01:16:27;3.67;;;3.47;;
72109;SDS011;59983;52.010;5.420;2024-01-07T01:18:53;3.90;;;3.70;;
72109;SDS011;59983;52.010;5.420;2024-01-07T01:21:20;3.97;;;3.78;;
72109;SDS011;59983;52.010;5.420;2024-01-07T01:23:46;4.40;;;4.10;;
72109;SDS011;59983;52.010;5.420;2024-01-07T01:26:13;4.03;;;3.80;;
72109;SDS011;59983;52.010;5.420;2024-01-07T01:28:40;4.10;;;3.80;;
72109;SDS011;59983;52.010;5.420;2024-01-07T01:31:06;4.47;;;4.17;;
72109;SDS011;59983;52.010;5.420;2024-01-07T01:33:33;4.13;;;3.88;;
72109;SDS011;59983;52.010;5.420;2024-01-07T01:36:03;4.18;;;3.88;;
72109;SDS011;59983;52.010;5.420;2024-01-07T01:38:30;4.00;;;3.70;;
72109;SDS011;59983;52.010;5.420;2024-01-07T01:40:57;3.80;;;3.50;;
72109;SDS011;59983;52.010;5.420;2024-01-07T01:43:24;4.00;;;3.60;;
72109;SDS011;59983;52.010;5.420;2024-01-07T01:45:52;4.30;;;4.00;;
72109;SDS011;59983;52.010;5.420;2024-01-07T01:48:19;4.53;;;4.22;;
72109;SDS011;59983;52.010;5.420;2024-01-07T01:50:46;4.15;;;3.92;;
72109;SDS011;59983;52.010;5.420;2024-01-07T01:53:17;4.18;;;3.97;;
72109;SDS011;59983;52.010;5.420;2024-01-07T01:55:43;4.90;;;4.60;;
72109;SDS011;59983;52.010;5.420;2024-01-07T01:58:10;4.57;;;4.30;;
72109;SDS011;59983;52.010;5.420;2024-01-07T02:00:39;4.38;;;4.07;;
72109;SDS011;59983;52.010;5.420;2024-01-07T02:03:06;3.50;;;3.30;;
72109;SDS011;59983;52.010;5.420;2024-01-07T02:05:33;4.40;;;4.10;;
72109;SDS011;59983;52.010;5.420;2024-01-07T02:08:00;4.37;;;3.97;;
72109;SDS011;59983;52.010;5.420;2024-01-07T02:10:27;4.82;;;4.43;;
72109;SDS011;59983;52.010;5.420;2024-01-07T02:12:55;4.72;;;4.43;;
72109;SDS011;59983;52.010;5.420;2024-01-07T02:15:23;4.90;;;4.38;;
72109;SDS011;59983;52.010;5.420;2024-01-07T02:17:50;4.65;;;4.30;;
72109;SDS011;59983;52.010;5.420;2024-01-07T02:20:17;5.00;;;4.63;;
72109;SDS011;59983;52.010;5.420;2024-01-07T02:22:43;4.20;;;3.90;;
72109;SDS011;59983;52.010;5.420;2024-01-07T02:25:10;4.78;;;4.45;;
72109;SDS011;59983;52.010;5.420;2024-01-07T02:27:36;4.53;;;4.22;;
72109;SDS011;59983;52.010;5.420;2024-01-07T02:30:03;3.92;;;3.72;;
72109;SDS011;59983;52.010;5.420;2024-01-07T02:32:30;4.03;;;3.83;;
72109;SDS011;59983;52.010;5.420;2024-01-07T02:35:00;4.80;;;4.40;;
72109;SDS011;59983;52.010;5.420;2024-01-07T02:37:27;4.15;;;3.85;;
72109;SDS011;59983;52.010;5.420;2024-01-07T02:39:53;4.45;;;4.00;;
72109;SDS011;59983;52.010;5.420;2024-01-07T02:42:27;4.80;;;4.50;;
72109;SDS011;59983;52.010;5.420;2024-01-07T02:44:54;4.30;;;4.00;;
72109;SDS011;59983;52.010;5.420;2024-01-07T02:47:20;4.32;;;4.03;;
72109;SDS011;59983;52.010;5.420;2024-01-07T02:49:47;4.43;;;4.03;;
72109;SDS011;59983;52.010;5.420;2024-01-07T02:52:13;4.40;;;4.10;;
72109;SDS011;59983;52.010;5.420;2024-01-07T02:54:40;4.57;;;4.28;;
72109;SDS011;59983;52.010;5.420;2024-01-07T02:57:07;5.27;;;4.77;;
72109;SDS011;59983;52.010;5.420;2024-01-07T02:59:33;4.93;;;4.53;;
72109;SDS011;59983;52.010;5.420;2024-01-07T03:02:00;4.55;;;4.25;;
72109;SDS011;59983;52.010;5.420;2024-01-07T03:04:26;5.07;;;4.68;;
72109;SDS011;59983;52.010;5.420;2024-01-07T03:06:53;4.32;;;4.03;;
72109;SDS011;59983;52.010;5.420;2024-01-07T03:09:20;4.83;;;4.53;;
72109;SDS011;59983;52.010;5.420;2024-01-07T03:11:47;5.00;;;4.70;;
72109;SDS011;59983;52.010;5.420;2024-01-07T03:14:13;5.85;;;5.45;;
72109;SDS011;59983;52.010;5.420;2024-01-07T03:16:40;5.15;;;4.75;;
72109;SDS011;59983;52.010;5.420;2024-01-07T03:19:06;5.13;;;4.72;;
72109;SDS011;59983;52.010;5.420;2024-01-07T03:21:33;4.87;;;4.57;;
72109;SDS011;59983;52.010;5.420;2024-01-07T03:24:00;4.85;;;4.55;;
72109;SDS011;59983;52.010;5.420;2024-01-07T03:26:28;4.88;;;4.57;;
72109;SDS011;59983;52.010;5.420;2024-01-07T03:28:56;5.30;;;5.00;;
72109;SDS011;59983;52.010;5.420;2024-01-07T03:31:26;4.65;;;4.25;;
72109;SDS011;59983;52.010;5.420;2024-01-07T03:33:53;5.40;;;5.10;;
72109;SDS011;59983;52.010;5.420;2024-01-07T03:36:20;5.35;;;4.95;;
72109;SDS011;59983;52.010;5.420;2024-01-07T03:38:46;4.70;;;4.32;;
72109;SDS011;59983;52.010;5.420;2024-01-07T03:41:16;4.68;;;4.38;;
72109;SDS011;59983;52.010;5.420;2024-01-07T03:43:46;5.10;;;4.70;;
72109;SDS011;59983;52.010;5.420;2024-01-07T03:46:13;4.77;;;4.40;;
72109;SDS011;59983;52.010;5.420;2024-01-07T03:48:44;5.78;;;5.28;;
72109;SDS011;59983;52.010;5.420;2024-01-07T03:51:11;5.10;;;4.80;;
72109;SDS011;59983;52.010;5.420;2024-01-07T03:53:38;5.15;;;4.75;;
72109;SDS011;59983;52.010;5.420;2024-01-07T03:56:04;5.28;;;4.90;;
72109;SDS011;59983;52.010;5.420;2024-01-07T03:58:32;5.13;;;4.83;;
72109;SDS011;59983;52.010;5.420;2024-01-07T04:00:58;5.10;;;4.70;;
72109;SDS011;59983;52.010;5.420;2024-01-07T04:03:25;5.10;;;4.80;;
72109;SDS011;59983;52.010;5.420;2024-01-07T04:05:51;5.35;;;5.05;;
72109;SDS011;59983;52.010;5.420;2024-01-07T04:08:18;5.75;;;5.10;;
72109;SDS011;59983;52.010;5.420;2024-01-07T04:10:45;5.57;;;5.27;;
72109;SDS011;59983;52.010;5.420;2024-01-07T04:13:11;5.30;;;4.90;;
72109;SDS011;59983;52.010;5.420;2024-01-07T04:15:38;4.63;;;4.32;;
72109;SDS011;59983;52.010;5.420;2024-01-07T04:18:04;4.63;;;4.32;;
72109;SDS011;59983;52.010;5.420;2024-01-07T04:20:32;4.50;;;4.30;;
72109;SDS011;59983;52.010;5.420;2024-01-07T04:22:58;4.80;;;4.50;;
72109;SDS011;59983;52.010;5.420;2024-01-07T04:25:25;5.50;;;5.10;;
72109;SDS011;59983;52.010;5.420;2024-01-07T04:27:51;5.80;;;5.32;;
72109;SDS011;59983;52.010;5.420;2024-01-07T04:30:18;6.15;;;5.65;;
72109;SDS011;59983;52.010;5.420;2024-01-07T04:32:45;5.80;;;5.38;;
72109;SDS011;59983;52.010;5.420;2024-01-07T04:35:12;5.20;;;4.90;;
72109;SDS011;59983;52.010;5.420;2024-01-07T04:37:38;5.72;;;5.32;;
72109;SDS011;59983;52.010;5.420;2024-01-07T04:40:05;5.78;;;5.38;;
72109;SDS011;59983;52.010;5.420;2024-01-07T04:42:32;5.88;;;5.45;;
72109;SDS011;59983;52.010;5.420;2024-01-07T04:44:59;5.35;;;4.88;;
72109;SDS011;59983;52.010;5.420;2024-01-07T04:47:29;5.40;;;5.00;;
72109;SDS011;59983;52.010;5.420;2024-01-07T04:49:57;4.97;;;4.68;;
72109;SDS011;59983;52.010;5.420;2024-01-07T04:52:24;4.97;;;4.68;;
72109;SDS011;59983;52.010;5.420;2024-01-07T04:54:51;6.22;;;5.75;;
72109;SDS011;59983;52.010;5.420;2024-01-07T04:57:18;6.05;;;5.57;;
72109;SDS011;59983;52.010;5.420;2024-01-07T04:59:45;6.80;;;6.33;;
72109;SDS011;59983;52.010;5.420;2024-01-07T05:02:12;6.60;;;6.20;;
72109;SDS011;59983;52.010;5.420;2024-01-07T05:04:39;5.50;;;5.10;;
72109;SDS011;59983;52.010;5.420;2024-01-07T05:07:06;5.50;;;5.10;;
72109;SDS011;59983;52.010;5.420;2024-01-07T05:09:33;5.88;;;5.40;;
72109;SDS011;59983;52.010;5.420;2024-01-07T05:11:59;6.17;;;5.70;;
72109;SDS011;59983;52.010;5.420;2024-01-07T05:14:26;5.97;;;5.57;;
72109;SDS011;59983;52.010;5.420;2024-01-07T05:16:53;5.32;;;5.03;;
72109;SDS011;59983;52.010;5.420;2024-01-07T05:19:20;5.85;;;5.40;;
72109;SDS011;59983;52.010;5.420;2024-01-07T05:21:47;5.60;;;5.25;;
72109;SDS011;59983;52.010;5.420;2024-01-07T05:24:14;5.47;;;5.17;;
72109;SDS011;59983;52.010;5.420;2024-01-07T05:26:42;5.18;;;4.88;;
72109;SDS011;59983;52.010;5.420;2024-01-07T05:29:09;5.53;;;5.20;;
72109;SDS011;59983;52.010;5.420;2024-01-07T05:31:36;5.68;;;5.28;;
72109;SDS011;59983;52.010;5.420;2024-01-07T05:34:02;5.65;;;5.25;;
72109;SDS011;59983;52.010;5.420;2024-01-07T05:36:29;5.63;;;5.30;;
72109;SDS011;59983;52.010;5.420;2024-01-07T05:38:56;5.68;;;5.38;;
72109;SDS011;59983;52.010;5.420;2024-01-07T05:41:22;5.30;;;4.95;;
72109;SDS011;59983;52.010;5.420;2024-01-07T05:43:49;4.97;;;4.68;;
72109;SDS011;59983;52.010;5.420;2024-01-07T05:46:16;5.22;;;4.93;;
72109;SDS011;59983;52.010;5.420;2024-01-07T05:48:43;5.10;;;4.80;;
72109;SDS011;59983;52.010;5.420;2024-01-07T05:51:11;5.85;;;5.50;;
72109;SDS011;59983;52.010;5.420;2024-01-07T05:53:39;4.82;;;4.53;;
72109;SDS011;59983;52.010;5.420;2024-01-07T05:56:06;5.22;;;4.82;;
72109;SDS011;59983;52.010;5.420;2024-01-07T05:58:33;5.47;;;5.05;;
72109;SDS011;59983;52.010;5.420;2024-01-07T06:01:00;4.67;;;4.37;;
72109;SDS011;59983;52.010;5.420;2024-01-07T06:03:27;5.43;;;5.03;;
72109;SDS011;59983;52.010;5.420;2024-01-07T06:05:54;5.40;;;4.97;;
72109;SDS011;59983;52.010;5.420;2024-01-07T06:08:20;4.82;;;4.43;;
72109;SDS011;59983;52.010;5.420;2024-01-07T06:10:47;5.47;;;5.13;;
72109;SDS011;59983;52.010;5.420;2024-01-07T06:13:13;5.47;;;5.07;;
72109;SDS011;59983;52.010;5.420;2024-01-07T06:15:40;5.70;;;5.32;;
72109;SDS011;59983;52.010;5.420;2024-01-07T06:18:06;5.30;;;4.90;;
72109;SDS011;59983;52.010;5.420;2024-01-07T06:20:33;4.68;;;4.38;;
72109;SDS011;59983;52.010;5.420;2024-01-07T06:23:00;5.07;;;4.70;;
72109;SDS011;59983;52.010;5.420;2024-01-07T06:25:26;4.70;;;4.40;;
72109;SDS011;59983;52.010;5.420;2024-01-07T06:27:53;5.68;;;5.28;;
72109;SDS011;59983;52.010;5.420;2024-01-07T06:30:19;4.90;;;4.60;;
72109;SDS011;59983;52.010;5.420;2024-01-07T06:32:46;5.70;;;5.40;;
72109;SDS011;59983;52.010;5.420;2024-01-07T06:35:14;4.72;;;4.43;;
72109;SDS011;59983;52.010;5.420;2024-01-07T06:37:41;5.53;;;5.10;;
72109;SDS011;59983;52.010;5.420;2024-01-07T06:40:07;5.07;;;4.78;;
72109;SDS011;59983;52.010;5.420;2024-01-07T06:42:34;5.05;;;4.75;;
72109;SDS011;59983;52.010;5.420;2024-01-07T06:45:01;4.97;;;4.68;;
72109;SDS011;59983;52.010;5.420;2024-01-07T06:47:28;4.50;;;4.20;;
72109;SDS011;59983;52.010;5.420;2024-01-07T06:49:54;5.07;;;4.77;;
72109;SDS011;59983;52.010;5.420;2024-01-07T06:52:21;4.85;;;4.55;;
72109;SDS011;59983;52.010;5.420;2024-01-07T06:54:48;4.72;;;4.43;;
72109;SDS011;59983;52.010;5.420;2024-01-07T06:57:14;5.65;;;5.25;;
72109;SDS011;59983;52.010;5.420;2024-01-07T06:59:41;5.05;;;4.75;;
72109;SDS011;59983;52.010;5.420;2024-01-07T07:02:08;4.63;;;4.33;;
72109;SDS011;59983;52.010;5.420;2024-01-07T07:04:34;5.20;;;4.80;;
72109;SDS011;59983;52.010;5.420;2024-01-07T07:07:01;7.70;;;5.07;;
72109;SDS011;59983;52.010;5.420;2024-01-07T07:09:27;5.05;;;4.68;;
72109;SDS011;59983;52.010;5.420;2024-01-07T07:11:54;4.95;;;4.65;;
72109;SDS011;59983;52.010;5.420;2024-01-07T07:14:20;4.40;;;4.20;;
72109;SDS011;59983;52.010;5.420;2024-01-07T07:16:47;4.88;;;4.53;;
72109;SDS011;59983;52.010;5.420;2024-01-07T07:19:14;4.88;;;4.55;;
72109;SDS011;59983;52.010;5.420;2024-01-07T07:21:41;4.80;;;4.57;;
72109;SDS011;59983;52.010;5.420;2024-01-07T07:24:09;4.57;;;4.28;;
72109;SDS011;59983;52.010;5.420;2024-01-07T07:26:36;4.63;;;4.33;;
72109;SDS011;59983;52.010;5.420;2024-01-07T07:29:07;4.95;;;4.60;;
72109;SDS011;59983;52.010;5.420;2024-01-07T07:31:36;4.50;;;4.30;;
72109;SDS011;59983;52.010;5.420;2024-01-07T07:34:03;3.83;;;3.63;;
72109;SDS011;59983;52.010;5.420;2024-01-07T07:36:31;4.82;;;4.53;;
72109;SDS011;59983;52.010;5.420;2024-01-07T07:38:57;4.83;;;4.53;;
72109;SDS011;59983;52.010;5.420;2024-01-07T07:41:24;5.00;;;4.60;;
72109;SDS011;59983;52.010;5.420;2024-01-07T07:43:51;5.13;;;4.82;;
72109;SDS011;59983;52.010;5.420;2024-01-07T07:46:17;5.18;;;4.88;;
72109;SDS011;59983;52.010;5.420;2024-01-07T07:48:44;5.55;;;5.05;;
72109;SDS011;59983;52.010;5.420;2024-01-07T07:51:10;5.13;;;4.73;;
72109;SDS011;59983;52.010;5.420;2024-01-07T07:53:40;4.40;;;4.15;;
72109;SDS011;59983;52.010;5.420;2024-01-07T07:56:06;4.45;;;4.25;;
72109;SDS011;59983;52.010;5.420;2024-01-07T07:58:34;5.32;;;4.90;;
72109;SDS011;59983;52.010;5.420;2024-01-07T08:01:01;4.47;;;4.25;;
72109;SDS011;59983;52.010;5.420;2024-01-07T08:03:28;4.90;;;4.60;;
72109;SDS011;59983;52.010;5.420;2024-01-07T08:05:55;4.57;;;4.28;;
72109;SDS011;59983;52.010;5.420;2024-01-07T08:08:21;4.93;;;4.50;;
72109;SDS011;59983;52.010;5.420;2024-01-07T08:10:48;4.85;;;4.55;;
72109;SDS011;59983;52.010;5.420;2024-01-07T08:13:14;4.82;;;4.57;;
72109;SDS011;59983;52.010;5.420;2024-01-07T08:15:42;4.20;;;4.00;;
72109;SDS011;59983;52.010;5.420;2024-01-07T08:18:08;4.80;;;4.50;;
72109;SDS011;59983;52.010;5.420;2024-01-07T08:20:35;4.13;;;3.83;;
72109;SDS011;59983;52.010;5.420;2024-01-07T08:23:02;4.60;;;4.30;;
72109;SDS011;59983;52.010;5.420;2024-01-07T08:25:28;4.72;;;4.43;;
72109;SDS011;59983;52.010;5.420;2024-01-07T08:27:55;5.07;;;4.73;;
72109;SDS011;59983;52.010;5.420;2024-01-07T08:30:22;3.88;;;3.67;;
72109;SDS011;59983;52.010;5.420;2024-01-07T08:32:49;4.25;;;4.05;;
72109;SDS011;59983;52.010;5.420;2024-01-07T08:35:16;4.70;;;4.30;;
72109;SDS011;59983;52.010;5.420;2024-01-07T08:37:45;4.38;;;4.07;;
72109;SDS011;59983;52.010;5.420;2024-01-07T08:40:12;4.50;;;4.23;;
72109;SDS011;59983;52.010;5.420;2024-01-07T08:42:40;4.20;;;4.00;;
72109;SDS011;59983;52.010;5.420;2024-01-07T08:45:07;4.60;;;4.20;;
72109;SDS011;59983;52.010;5.420;2024-01-07T08:47:34;4.90;;;4.60;;
72109;SDS011;59983;52.010;5.420;2024-01-07T08:50:08;4.22;;;3.92;;
72109;SDS011;59983;52.010;5.420;2024-01-07T08:52:35;4.60;;;4.20;;
72109;SDS011;59983;52.010;5.420;2024-01-07T08:55:02;4.38;;;4.07;;
72109;SDS011;59983;52.010;5.420;2024-01-07T08:57:32;4.10;;;3.80;;
72109;SDS011;59983;52.010;5.420;2024-01-07T08:59:59;4.22;;;3.78;;
72109;SDS011;59983;52.010;5.420;2024-01-07T09:02:25;3.70;;;3.42;;
72109;SDS011;59983;52.010;5.420;2024-01-07T09:04:52;3.80;;;3.60;;
72109;SDS011;59983;52.010;5.420;2024-01-07T09:07:19;3.85;;;3.60;;
72109;SDS011;59983;52.010;5.420;2024-01-07T09:09:45;3.47;;;3.28;;
72109;SDS011;59983;52.010;5.420;2024-01-07T09:12:12;3.45;;;3.25;;
72109;SDS011;59983;52.010;5.420;2024-01-07T09:14:38;3.40;;;3.20;;
72109;SDS011;59983;52.010;5.420;2024-01-07T09:17:05;4.10;;;3.10;;
72109;SDS011;59983;52.010;5.420;2024-01-07T09:19:31;3.80;;;3.60;;
72109;SDS011;59983;52.010;5.420;2024-01-07T09:21:58;3.80;;;3.60;;
72109;SDS011;59983;52.010;5.420;2024-01-07T09:24:25;3.28;;;3.08;;
72109;SDS011;59983;52.010;5.420;2024-01-07T09:26:51;3.10;;;2.90;;
72109;SDS011;59983;52.010;5.420;2024-01-07T09:29:18;3.30;;;3.10;;
72109;SDS011;59983;52.010;5.420;2024-01-07T09:31:45;3.40;;;3.15;;
72109;SDS011;59983;52.010;5.420;2024-01-07T09:34:11;3.67;;;3.38;;
72109;SDS011;59983;52.010;5.420;2024-01-07T09:36:38;3.60;;;3.40;;
72109;SDS011;59983;52.010;5.420;2024-01-07T09:39:05;2.95;;;2.70;;
72109;SDS011;59983;52.010;5.420;2024-01-07T09:41:32;3.30;;;3.10;;
72109;SDS011;59983;52.010;5.420;2024-01-07T09:44:00;3.47;;;3.28;;
72109;SDS011;59983;52.010;5.420;2024-01-07T09:46:26;5.85;;;2.83;;
72109;SDS011;59983;52.010;5.420;2024-01-07T09:48:55;2.95;;;2.42;;
72109;SDS011;59983;52.010;5.420;2024-01-07T09:51:22;3.30;;;2.90;;
72109;SDS011;59983;52.010;5.420;2024-01-07T09:53:50;2.83;;;2.67;;
72109;SDS011;59983;52.010;5.420;2024-01-07T09:56:24;2.40;;;2.22;;
72109;SDS011;59983;52.010;5.420;2024-01-07T09:58:51;3.50;;;3.30;;
72109;SDS011;59983;52.010;5.420;2024-01-07T10:01:18;3.20;;;3.00;;
72109;SDS011;59983;52.010;5.420;2024-01-07T10:03:45;3.45;;;3.17;;
72109;SDS011;59983;52.010;5.420;2024-01-07T10:06:12;3.40;;;3.10;;
72109;SDS011;59983;52.010;5.420;2024-01-07T10:08:40;2.88;;;2.72;;
72109;SDS011;59983;52.010;5.420;2024-01-07T10:11:06;3.30;;;2.80;;
72109;SDS011;59983;52.010;5.420;2024-01-07T10:13:35;3.13;;;2.92;;
72109;SDS011;59983;52.010;5.420;2024-01-07T10:16:02;3.30;;;3.08;;
72109;SDS011;59983;52.010;5.420;2024-01-07T10:18:30;2.80;;;2.60;;
72109;SDS011;59983;52.010;5.420;2024-01-07T10:21:01;6.68;;;2.85;;
72109;SDS011;59983;52.010;5.420;2024-01-07T10:23:30;2.95;;;2.65;;
72109;SDS011;59983;52.010;5.420;2024-01-07T10:25:57;3.08;;;2.88;;
72109;SDS011;59983;52.010;5.420;2024-01-07T10:28:31;3.35;;;3.15;;
72109;SDS011;59983;52.010;5.420;2024-01-07T10:30:58;3.10;;;2.90;;
72109;SDS011;59983;52.010;5.420;2024-01-07T10:33:24;3.10;;;2.80;;
72109;SDS011;59983;52.010;5.420;2024-01-07T10:35:52;2.80;;;2.60;;
72109;SDS011;59983;52.010;5.420;2024-01-07T10:38:22;3.05;;;2.85;;
72109;SDS011;59983;52.010;5.420;2024-01-07T10:40:49;3.22;;;2.92;;
72109;SDS011;59983;52.010;5.420;2024-01-07T10:43:18;2.90;;;2.70;;
72109;SDS011;59983;52.010;5.420;2024-01-07T10:45:47;2.35;;;2.22;;
72109;SDS011;59983;52.010;5.420;2024-01-07T10:48:17;4.28;;;2.70;;
72109;SDS011;59983;52.010;5.420;2024-01-07T10:50:45;3.17;;;2.97;;
72109;SDS011;59983;52.010;5.420;2024-01-07T10:53:20;3.17;;;2.97;;
72109;SDS011;59983;52.010;5.420;2024-01-07T10:55:54;3.33;;;2.70;;
72109;SDS011;59983;52.010;5.420;2024-01-07T10:58:26;2.83;;;2.63;;
72109;SDS011;59983;52.010;5.420;2024-01-07T11:00:53;3.13;;;2.92;;
72109;SDS011;59983;52.010;5.420;2024-01-07T11:05:58;3.00;;;2.80;;
72109;SDS011;59983;52.010;5.420;2024-01-07T11:11:35;2.95;;;2.78;;
72109;SDS011;59983;52.010;5.420;2024-01-07T11:17:11;3.20;;;2.90;;
72109;SDS011;59983;52.010;5.420;2024-01-07T11:19:49;3.38;;;3.03;;
72109;SDS011;59983;52.010;5.420;2024-01-07T11:24:57;3.20;;;2.90;;
72109;SDS011;59983;52.010;5.420;2024-01-07T11:27:25;3.03;;;2.83;;
72109;SDS011;59983;52.010;5.420;2024-01-07T11:29:55;3.40;;;3.10;;
72109;SDS011;59983;52.010;5.420;2024-01-07T11:32:23;2.80;;;2.60;;
72109;SDS011;59983;52.010;5.420;2024-01-07T11:34:51;3.17;;;2.97;;
72109;SDS011;59983;52.010;5.420;2024-01-07T11:37:20;2.72;;;2.53;;
72109;SDS011;59983;52.010;5.420;2024-01-07T11:39:48;2.75;;;2.55;;
72109;SDS011;59983;52.010;5.420;2024-01-07T11:42:17;2.80;;;2.60;;
72109;SDS011;59983;52.010;5.420;2024-01-07T11:44:47;2.80;;;2.60;;
72109;SDS011;59983;52.010;5.420;2024-01-07T11:47:15;2.30;;;2.10;;
72109;SDS011;59983;52.010;5.420;2024-01-07T11:49:45;2.60;;;2.50;;
72109;SDS011;59983;52.010;5.420;2024-01-07T11:52:13;2.70;;;2.50;;
72109;SDS011;59983;52.010;5.420;2024-01-07T11:54:40;3.15;;;2.85;;
72109;SDS011;59983;52.010;5.420;2024-01-07T11:57:08;3.13;;;2.92;;
72109;SDS011;59983;52.010;5.420;2024-01-07T11:59:36;3.20;;;3.00;;
72109;SDS011;59983;52.010;5.420;2024-01-07T12:02:07;2.47;;;2.28;;
72109;SDS011;59983;52.010;5.420;2024-01-07T12:04:35;2.30;;;2.20;;
72109;SDS011;59983;52.010;5.420;2024-01-07T12:07:04;2.85;;;2.53;;
72109;SDS011;59983;52.010;5.420;2024-01-07T12:09:31;3.10;;;2.95;;
72109;SDS011;59983;52.010;5.420;2024-01-07T12:11:57;2.73;;;2.57;;
72109;SDS011;59983;52.010;5.420;2024-01-07T12:14:24;2.90;;;2.67;;
72109;SDS011;59983;52.010;5.420;2024-01-07T12:16:52;2.65;;;2.53;;
72109;SDS011;59983;52.010;5.420;2024-01-07T12:19:18;2.60;;;2.40;;
72109;SDS011;59983;52.010;5.420;2024-01-07T12:21:46;2.80;;;2.60;;
72109;SDS011;59983;52.010;5.420;2024-01-07T12:24:14;2.40;;;2.30;;
72109;SDS011;59983;52.010;5.420;2024-01-07T12:26:41;2.30;;;2.20;;
72109;SDS011;59983;52.010;5.420;2024-01-07T12:29:07;2.25;;;2.05;;
72109;SDS011;59983;52.010;5.420;2024-01-07T12:31:36;2.67;;;2.58;;
72109;SDS011;59983;52.010;5.420;2024-01-07T12:34:03;2.83;;;2.63;;
72109;SDS011;59983;52.010;5.420;2024-01-07T12:36:30;2.33;;;2.13;;
72109;SDS011;59983;52.010;5.420;2024-01-07T12:38:58;2.45;;;2.25;;
72109;SDS011;59983;52.010;5.420;2024-01-07T12:41:25;2.33;;;2.22;;
72109;SDS011;59983;52.010;5.420;2024-01-07T12:43:51;2.13;;;2.03;;
72109;SDS011;59983;52.010;5.420;2024-01-07T12:46:18;2.35;;;2.20;;
72109;SDS011;59983;52.010;5.420;2024-01-07T12:48:45;2.20;;;2.10;;
72109;SDS011;59983;52.010;5.420;2024-01-07T12:51:12;2.00;;;1.90;;
72109;SDS011;59983;52.010;5.420;2024-01-07T12:53:38;2.20;;;2.00;;
72109;SDS011;59983;52.010;5.420;2024-01-07T12:56:05;2.15;;;1.98;;
72109;SDS011;59983;52.010;5.420;2024-01-07T12:58:31;2.47;;;2.28;;
72109;SDS011;59983;52.010;5.420;2024-01-07T13:00:59;2.10;;;2.00;;
72109;SDS011;59983;52.010;5.420;2024-01-07T13:03:26;2.20;;;2.10;;
72109;SDS011;59983;52.010;5.420;2024-01-07T13:05:53;2.20;;;2.10;;
72109;SDS011;59983;52.010;5.420;2024-01-07T13:08:19;1.88;;;1.77;;
72109;SDS011;59983;52.010;5.420;2024-01-07T13:10:48;1.90;;;1.80;;
72109;SDS011;59983;52.010;5.420;2024-01-07T13:13:15;2.00;;;1.90;;
72109;SDS011;59983;52.010;5.420;2024-01-07T13:15:42;3.13;;;2.10;;
72109;SDS011;59983;52.010;5.420;2024-01-07T13:18:09;1.70;;;1.60;;
72109;SDS011;59983;52.010;5.420;2024-01-07T13:20:38;1.75;;;1.65;;
72109;SDS011;59983;52.010;5.420;2024-01-07T13:23:08;1.80;;;1.70;;
72109;SDS011;59983;52.010;5.420;2024-01-07T13:25:34;2.07;;;1.97;;
72109;SDS011;59983;52.010;5.420;2024-01-07T13:28:01;3.05;;;2.20;;
72109;SDS011;59983;52.010;5.420;2024-01-07T13:30:28;2.40;;;2.30;;
72109;SDS011;59983;52.010;5.420;2024-01-07T13:32:54;1.95;;;1.85;;
72109;SDS011;59983;52.010;5.420;2024-01-07T13:35:24;2.00;;;1.90;;
72109;SDS011;59983;52.010;5.420;2024-01-07T13:37:51;2.20;;;2.10;;
72109;SDS011;59983;52.010;5.420;2024-01-07T13:40:18;2.20;;;2.10;;
72109;SDS011;59983;52.010;5.420;2024-01-07T13:42:45;1.90;;;1.80;;
72109;SDS011;59983;52.010;5.420;2024-01-07T13:45:12;3.05;;;1.80;;
72109;SDS011;59983;52.010;5.420;2024-01-07T13:47:39;2.00;;;1.90;;
72109;SDS011;59983;52.010;5.420;2024-01-07T13:50:07;2.00;;;1.90;;
72109;SDS011;59983;52.010;5.420;2024-01-07T13:52:36;2.30;;;2.15;;
72109;SDS011;59983;52.010;5.420;2024-01-07T13:55:02;2.08;;;1.98;;
72109;SDS011;59983;52.010;5.420;2024-01-07T13:57:30;2.55;;;2.45;;
72109;SDS011;59983;52.010;5.420;2024-01-07T13:59:57;2.40;;;2.30;;
72109;SDS011;59983;52.010;5.420;2024-01-07T14:02:23;2.30;;;2.20;;
72109;SDS011;59983;52.010;5.420;2024-01-07T14:04:50;2.22;;;2.10;;
72109;SDS011;59983;52.010;5.420;2024-01-07T14:07:20;2.25;;;2.05;;
72109;SDS011;59983;52.010;5.420;2024-01-07T14:09:47;2.08;;;1.98;;
72109;SDS011;59983;52.010;5.420;2024-01-07T14:12:13;2.55;;;2.45;;
72109;SDS011;59983;52.010;5.420;2024-01-07T14:14:40;2.70;;;2.57;;
72109;SDS011;59983;52.010;5.420;2024-01-07T14:17:06;2.60;;;2.25;;
72109;SDS011;59983;52.010;5.420;2024-01-07T14:19:33;2.10;;;1.90;;
72109;SDS011;59983;52.010;5.420;2024-01-07T14:22:00;2.42;;;2.20;;
72109;SDS011;59983;52.010;5.420;2024-01-07T14:24:27;1.70;;;1.60;;
72109;SDS011;59983;52.010;5.420;2024-01-07T14:26:53;2.50;;;2.33;;
72109;SDS011;59983;52.010;5.420;2024-01-07T14:29:24;2.47;;;2.38;;
72109;SDS011;59983;52.010;5.420;2024-01-07T14:31:50;2.50;;;2.40;;
72109;SDS011;59983;52.010;5.420;2024-01-07T14:34:17;2.60;;;2.50;;
72109;SDS011;59983;52.010;5.420;2024-01-07T14:36:44;2.60;;;2.30;;
72109;SDS011;59983;52.010;5.420;2024-01-07T14:39:11;2.43;;;2.10;;
72109;SDS011;59983;52.010;5.420;2024-01-07T14:41:39;2.22;;;2.13;;
72109;SDS011;59983;52.010;5.420;2024-01-07T14:44:06;2.60;;;2.40;;
72109;SDS011;59983;52.010;5.420;2024-01-07T14:46:36;2.72;;;2.63;;
72109;SDS011;59983;52.010;5.420;2024-01-07T14:49:03;3.08;;;2.65;;
72109;SDS011;59983;52.010;5.420;2024-01-07T14:51:31;2.57;;;2.47;;
72109;SDS011;59983;52.010;5.420;2024-01-07T14:53:58;2.15;;;2.05;;
72109;SDS011;59983;52.010;5.420;2024-01-07T14:56:25;2.53;;;2.42;;
72109;SDS011;59983;52.010;5.420;2024-01-07T14:58:52;2.60;;;2.40;;